Time;durP1;ratioP1;P1;durP2;ratioP2;P2;SDS_P1;SDS_P2;PMS_P1;PMS_P2;Temp;Humidity;BMP_temperature;BMP_pressure;BME280_temperature;BME280_humidity;BME280_pressure;Samples;Min_cycle;Max_cycle;Signal;HPM_P1;HPM_P2
2021/01/25 00:00:07;;;;;;;10.18;6.45;;;2.40;99.90;;;;;;5013662;28;20213;-55
2021/01/25 00:02:38;;;;;;;14.43;6.88;;;2.40;99.90;;;;;;5013910;28;20182;-59
2021/01/25 00:05:08;;;;;;;18.13;6.28;;;2.40;99.90;;;;;;5013942;28;20600;-61
2021/01/25 00:07:35;;;;;;;10.88;7.85;;;2.40;99.90;;;;;;5013940;28;20198;-54
2021/01/25 00:10:04;;;;;;;10.10;6.45;;;2.40;99.90;;;;;;5013467;28;20213;-55
2021/01/25 00:12:31;;;;;;;5.68;5.00;;;2.40;99.90;;;;;;5013720;28;20190;-58
2021/01/25 00:15:00;;;;;;;11.40;6.65;;;2.50;99.90;;;;;;5013472;28;20245;-55
2021/01/25 00:17:27;;;;;;;11.45;5.45;;;2.40;99.90;;;;;;5013322;28;20182;-60
2021/01/25 00:19:54;;;;;;;9.13;6.80;;;2.40;99.90;;;;;;5013458;28;20225;-58
2021/01/25 00:22:22;;;;;;;9.55;5.72;;;2.30;99.90;;;;;;5013593;28;20193;-60
2021/01/25 00:24:49;;;;;;;12.10;7.32;;;2.30;99.90;;;;;;5013324;28;20663;-59
2021/01/25 00:27:16;;;;;;;13.60;5.72;;;2.30;99.90;;;;;;5013345;28;20170;-61
2021/01/25 00:29:44;;;;;;;12.95;6.35;;;2.20;99.90;;;;;;5013264;28;20198;-59
2021/01/25 00:32:12;;;;;;;10.23;5.80;;;2.20;99.90;;;;;;5013221;28;20206;-59
2021/01/25 00:34:40;;;;;;;15.43;7.32;;;2.30;99.90;;;;;;5013358;28;20178;-60
2021/01/25 00:37:07;;;;;;;8.90;5.80;;;2.30;99.90;;;;;;5013660;28;20186;-60
2021/01/25 00:39:34;;;;;;;11.00;5.60;;;2.30;99.90;;;;;;5013594;28;20174;-59
2021/01/25 00:42:01;;;;;;;16.30;8.15;;;2.30;99.90;;;;;;5013876;28;20703;-58
2021/01/25 00:44:28;;;;;;;10.57;6.40;;;2.30;99.90;;;;;;5013566;28;20578;-58
2021/01/25 00:46:55;;;;;;;12.57;7.38;;;2.30;99.90;;;;;;5013564;28;20183;-56
2021/01/25 00:49:24;;;;;;;7.38;5.05;;;2.40;99.90;;;;;;5012907;28;20212;-57
2021/01/25 00:51:51;;;;;;;12.15;6.18;;;2.30;99.90;;;;;;5011538;28;20595;-61
2021/01/25 00:54:19;;;;;;;7.18;5.13;;;2.30;99.90;;;;;;5011817;28;20194;-59
2021/01/25 00:56:48;;;;;;;11.13;5.78;;;2.40;99.90;;;;;;5011816;28;20186;-58
2021/01/25 00:59:16;;;;;;;7.85;5.82;;;2.40;99.90;;;;;;5013139;28;20221;-60
2021/01/25 01:01:43;;;;;;;8.85;5.93;;;2.30;99.90;;;;;;5012966;28;20218;-60
2021/01/25 01:04:11;;;;;;;8.10;5.43;;;2.40;99.90;;;;;;5012961;28;20174;-58
2021/01/25 01:06:40;;;;;;;11.05;7.50;;;2.30;99.90;;;;;;5013031;28;20189;-59
2021/01/25 01:09:08;;;;;;;14.18;6.70;;;2.40;99.90;;;;;;5012729;28;20184;-61
2021/01/25 01:11:35;;;;;;;6.68;4.22;;;2.40;99.90;;;;;;5013393;28;20233;-52
2021/01/25 01:14:03;;;;;;;9.07;5.80;;;2.40;99.90;;;;;;5013073;28;20213;-55
2021/01/25 01:16:30;;;;;;;11.75;5.93;;;2.40;99.90;;;;;;5014099;28;20516;-57
2021/01/25 01:18:57;;;;;;;9.13;4.85;;;2.40;99.90;;;;;;5018264;28;20210;-54
2021/01/25 01:21:24;;;;;;;7.65;4.10;;;2.50;99.90;;;;;;5015642;28;20210;-60
2021/01/25 01:23:53;;;;;;;6.50;4.85;;;2.50;99.90;;;;;;5015134;28;20581;-57
2021/01/25 01:26:20;;;;;;;8.75;6.03;;;2.50;99.90;;;;;;5016382;28;20196;-54
2021/01/25 01:28:47;;;;;;;11.55;6.90;;;2.50;99.90;;;;;;5013515;28;20186;-61
2021/01/25 01:31:17;;;;;;;19.70;10.10;;;2.50;99.90;;;;;;5013585;28;20248;-58
2021/01/25 01:33:45;;;;;;;7.03;4.20;;;2.50;99.90;;;;;;5015731;28;20182;-58
2021/01/25 01:36:12;;;;;;;10.70;5.60;;;2.50;99.90;;;;;;5017536;28;20186;-60
2021/01/25 01:38:39;;;;;;;10.07;5.90;;;2.40;99.90;;;;;;5018968;28;20250;-58
2021/01/25 01:41:07;;;;;;;11.95;7.28;;;2.30;99.90;;;;;;5018556;28;20229;-58
2021/01/25 01:43:34;;;;;;;9.40;5.00;;;2.30;99.90;;;;;;5018912;28;20182;-57
2021/01/25 01:46:01;;;;;;;11.00;6.22;;;2.40;99.90;;;;;;5013847;28;20543;-56
2021/01/25 01:48:29;;;;;;;11.25;6.63;;;2.40;99.90;;;;;;5013576;28;20200;-58
2021/01/25 01:50:56;;;;;;;9.43;5.32;;;2.40;99.90;;;;;;5013819;28;20268;-53
2021/01/25 01:53:24;;;;;;;12.35;8.43;;;2.30;99.90;;;;;;5014065;28;20538;-53
2021/01/25 01:55:51;;;;;;;7.47;5.40;;;2.20;99.90;;;;;;5013461;28;20182;-57
2021/01/25 01:58:20;;;;;;;10.75;6.57;;;2.00;99.90;;;;;;5013204;28;20194;-55
2021/01/25 02:00:47;;;;;;;8.32;6.22;;;2.00;99.90;;;;;;5012561;28;20214;-55
2021/01/25 02:03:14;;;;;;;10.35;5.95;;;2.10;99.90;;;;;;5013295;28;20186;-54
2021/01/25 02:05:42;;;;;;;9.13;6.43;;;2.10;99.90;;;;;;5013564;28;20178;-56
2021/01/25 02:08:11;;;;;;;12.93;7.82;;;2.00;99.90;;;;;;5012940;28;20194;-54
2021/01/25 02:10:38;;;;;;;8.05;4.90;;;1.90;99.90;;;;;;5013475;28;20229;-54
2021/01/25 02:13:06;;;;;;;11.75;5.93;;;1.70;99.90;;;;;;5014449;28;20213;-57
2021/01/25 02:15:34;;;;;;;16.45;8.93;;;1.70;99.90;;;;;;5013615;28;20190;-55
2021/01/25 02:18:01;;;;;;;9.48;5.20;;;1.50;99.90;;;;;;5014935;28;20572;-57
2021/01/25 02:20:33;;;;;;;11.43;6.72;;;1.50;99.90;;;;;;5016178;28;20217;-53
2021/01/25 02:23:24;;;;;;;7.13;4.35;;;1.40;99.90;;;;;;5017505;28;20217;-59
2021/01/25 02:25:56;;;;;;;9.25;5.47;;;1.30;99.90;;;;;;5036046;28;20192;-58
2021/01/25 02:28:24;;;;;;;8.68;4.80;;;1.20;99.90;;;;;;5036607;28;20182;-53
2021/01/25 02:30:52;;;;;;;15.50;7.47;;;1.20;99.90;;;;;;5048867;28;20212;-56
2021/01/25 02:33:20;;;;;;;9.85;7.50;;;1.20;99.90;;;;;;5056835;28;20204;-57
2021/01/25 02:35:48;;;;;;;11.45;7.90;;;1.30;99.90;;;;;;5055977;28;20200;-55
2021/01/25 02:38:17;;;;;;;18.25;7.45;;;1.30;99.90;;;;;;5056950;28;20215;-53
2021/01/25 02:40:48;;;;;;;8.77;6.43;;;1.30;99.90;;;;;;5055477;28;20208;-57
2021/01/25 02:43:16;;;;;;;8.07;4.78;;;1.30;99.90;;;;;;5054201;28;20612;-53
2021/01/25 02:45:45;;;;;;;10.25;7.40;;;1.30;99.90;;;;;;5054945;28;20534;-53
2021/01/25 02:51:48;;;;;;;14.07;7.13;;;1.40;99.90;;;;;;5054547;28;20200;-56
2021/01/25 02:54:15;;;;;;;10.50;7.72;;;1.50;99.90;;;;;;5054582;28;20719;-51
2021/01/25 02:56:43;;;;;;;9.52;7.40;;;1.40;99.90;;;;;;5054307;28;20288;-55
2021/01/25 02:59:10;;;;;;;15.05;8.57;;;1.30;99.90;;;;;;5054377;28;20208;-56
2021/01/25 03:01:38;;;;;;;20.40;9.07;;;1.40;99.90;;;;;;5054492;28;20212;-55
2021/01/25 03:04:06;;;;;;;16.83;7.75;;;1.40;99.90;;;;;;5053296;28;20665;-56
2021/01/25 03:06:34;;;;;;;22.67;8.02;;;1.30;99.90;;;;;;5056862;28;20183;-61
2021/01/25 03:09:01;;;;;;;10.68;7.95;;;1.30;99.90;;;;;;5055816;28;20188;-55
2021/01/25 03:11:28;;;;;;;9.48;8.48;;;1.30;99.90;;;;;;5054616;28;20706;-56
2021/01/25 03:14:05;;;;;;;14.57;8.20;;;1.20;99.90;;;;;;5054263;28;20222;-55
2021/01/25 03:16:33;;;;;;;14.70;8.38;;;1.30;99.90;;;;;;5053803;28;20188;-58
2021/01/25 03:19:01;;;;;;;21.77;9.65;;;1.30;99.90;;;;;;5053747;28;20549;-56
2021/01/25 03:21:28;;;;;;;11.95;5.57;;;1.30;99.90;;;;;;5054065;28;20209;-57
2021/01/25 03:23:55;;;;;;;12.05;6.80;;;1.20;99.90;;;;;;5054567;28;20189;-57
2021/01/25 03:26:22;;;;;;;9.23;5.10;;;1.30;99.90;;;;;;5052842;28;20672;-56
2021/01/25 03:28:49;;;;;;;11.10;6.97;;;1.40;99.90;;;;;;5052684;28;20192;-58
2021/01/25 03:31:16;;;;;;;13.88;7.47;;;1.50;99.90;;;;;;5053934;28;20284;-53
2021/01/25 03:33:43;;;;;;;11.55;7.60;;;1.60;99.90;;;;;;5054868;28;20169;-53
2021/01/25 03:36:11;;;;;;;8.60;5.05;;;1.70;99.90;;;;;;5054045;28;20196;-57
2021/01/25 03:38:38;;;;;;;9.50;7.90;;;1.70;99.90;;;;;;5054620;28;20185;-59
2021/01/25 03:41:05;;;;;;;11.15;6.47;;;1.70;99.90;;;;;;5055365;28;20205;-57
2021/01/25 03:43:32;;;;;;;11.35;7.43;;;1.80;99.90;;;;;;5053423;28;20212;-55
2021/01/25 03:45:59;;;;;;;15.88;9.70;;;1.80;99.90;;;;;;5053758;28;20184;-59
2021/01/25 03:48:27;;;;;;;10.13;8.95;;;1.70;99.90;;;;;;5053155;28;20189;-54
2021/01/25 03:50:54;;;;;;;12.80;6.72;;;1.70;99.90;;;;;;5052915;28;20213;-52
2021/01/25 03:53:22;;;;;;;9.43;7.75;;;1.80;99.90;;;;;;5053275;28;20321;-56
2021/01/25 03:55:49;;;;;;;9.18;6.32;;;1.80;99.90;;;;;;5052743;28;20196;-54
2021/01/25 03:58:16;;;;;;;17.90;9.20;;;1.80;99.90;;;;;;5053353;28;20502;-53
2021/01/25 04:00:43;;;;;;;7.25;6.55;;;1.80;99.90;;;;;;5052797;28;20211;-57
2021/01/25 04:03:11;;;;;;;10.90;8.35;;;1.70;99.90;;;;;;5053058;28;20185;-52
2021/01/25 04:05:39;;;;;;;12.95;6.78;;;1.70;99.90;;;;;;5052786;28;20228;-53
2021/01/25 04:08:06;;;;;;;11.82;7.65;;;1.70;99.90;;;;;;5052831;28;20205;-57
2021/01/25 04:10:34;;;;;;;12.55;8.32;;;1.70;99.90;;;;;;5053070;28;20227;-53
2021/01/25 04:13:01;;;;;;;9.25;5.80;;;1.50;99.90;;;;;;5053383;28;20177;-51
2021/01/25 04:15:28;;;;;;;14.02;7.03;;;1.50;99.90;;;;;;5053302;28;20537;-54
2021/01/25 04:17:55;;;;;;;10.73;5.75;;;1.40;99.90;;;;;;5052821;28;20235;-56
2021/01/25 04:20:23;;;;;;;12.20;8.02;;;1.40;99.90;;;;;;5052521;28;20235;-55
2021/01/25 04:22:50;;;;;;;15.55;8.73;;;1.40;99.90;;;;;;5052509;28;20670;-60
2021/01/25 04:25:17;;;;;;;14.57;6.93;;;1.40;99.90;;;;;;5052589;28;20169;-53
2021/01/25 04:27:45;;;;;;;16.42;6.18;;;1.50;99.90;;;;;;5052716;28;20184;-55
2021/01/25 04:30:14;;;;;;;10.85;7.45;;;1.60;99.90;;;;;;5052656;28;20216;-57
2021/01/25 04:32:41;;;;;;;10.43;8.23;;;1.60;99.90;;;;;;5052268;28;20634;-56
2021/01/25 04:35:11;;;;;;;9.57;6.47;;;1.70;99.90;;;;;;5056846;28;20180;-54
2021/01/25 04:37:39;;;;;;;18.63;7.68;;;1.80;99.90;;;;;;5057974;28;20204;-61
2021/01/25 04:40:08;;;;;;;7.78;4.57;;;1.90;99.90;;;;;;5056613;28;20193;-56
2021/01/25 04:42:37;;;;;;;12.32;7.30;;;1.90;99.90;;;;;;5056896;28;20227;-56
2021/01/25 04:45:07;;;;;;;8.40;4.75;;;1.90;99.90;;;;;;5057361;28;20609;-53
2021/01/25 04:47:35;;;;;;;13.13;8.10;;;2.00;99.90;;;;;;5057773;28;20189;-61
2021/01/25 04:50:03;;;;;;;17.38;8.38;;;2.00;99.90;;;;;;5057817;28;20261;-58
2021/01/25 04:52:32;;;;;;;8.85;6.15;;;1.90;99.90;;;;;;5056724;28;20181;-55
2021/01/25 04:55:00;;;;;;;11.98;7.60;;;1.80;99.90;;;;;;5056596;28;20259;-58
2021/01/25 04:57:31;;;;;;;12.25;7.78;;;1.80;99.90;;;;;;5060224;28;20191;-59
2021/01/25 05:00:01;;;;;;;14.30;7.78;;;1.80;99.90;;;;;;5058764;28;20208;-59
2021/01/25 05:02:29;;;;;;;15.85;9.90;;;1.90;99.90;;;;;;5056791;28;20196;-62
2021/01/25 05:04:57;;;;;;;14.98;9.43;;;1.90;99.90;;;;;;5058493;28;20677;-61
2021/01/25 05:07:24;;;;;;;17.52;10.00;;;1.80;99.90;;;;;;5055840;28;20681;-57
2021/01/25 05:09:51;;;;;;;12.05;8.98;;;1.90;99.90;;;;;;5058565;28;20177;-60
2021/01/25 05:12:18;;;;;;;17.40;10.32;;;1.90;99.90;;;;;;5054596;28;20181;-58
2021/01/25 05:14:45;;;;;;;13.60;9.35;;;1.80;99.90;;;;;;5052982;28;20193;-58
2021/01/25 05:17:14;;;;;;;11.18;8.50;;;1.80;99.90;;;;;;5052518;28;20211;-55
2021/01/25 05:19:43;;;;;;;14.70;9.18;;;1.80;99.90;;;;;;5056440;28;20242;-59
2021/01/25 05:22:14;;;;;;;21.42;11.05;;;1.90;99.90;;;;;;5056991;28;20205;-56
2021/01/25 05:24:47;;;;;;;18.02;9.68;;;1.90;99.90;;;;;;5055938;28;20657;-58
2021/01/25 05:27:23;;;;;;;25.85;11.20;;;1.90;99.90;;;;;;5053686;28;20188;-57
2021/01/25 05:29:50;;;;;;;18.48;10.15;;;2.00;99.90;;;;;;5054210;28;20176;-57
2021/01/25 05:32:18;;;;;;;14.48;10.02;;;2.00;99.90;;;;;;5053826;28;20654;-58
2021/01/25 05:34:48;;;;;;;19.88;10.02;;;2.00;99.90;;;;;;5054537;28;20181;-59
2021/01/25 05:37:15;;;;;;;12.43;8.10;;;2.00;99.90;;;;;;5054063;28;20242;-54
2021/01/25 05:39:46;;;;;;;12.10;7.97;;;2.00;99.90;;;;;;5054339;28;20177;-57
2021/01/25 05:42:15;;;;;;;19.80;10.07;;;2.00;99.90;;;;;;5054866;28;20219;-60
2021/01/25 05:44:42;;;;;;;20.77;9.80;;;2.00;99.90;;;;;;5054437;28;20224;-57
2021/01/25 05:47:10;;;;;;;15.48;10.82;;;2.00;99.90;;;;;;5055597;28;20191;-56
2021/01/25 05:49:38;;;;;;;22.25;12.05;;;2.00;99.90;;;;;;5054471;28;20204;-57
2021/01/25 05:52:06;;;;;;;12.90;7.60;;;2.00;99.90;;;;;;5056446;28;20227;-56
2021/01/25 05:54:33;;;;;;;13.65;8.93;;;1.90;99.90;;;;;;5046586;28;20221;-55
2021/01/25 05:57:00;;;;;;;15.95;11.00;;;1.90;99.90;;;;;;5039542;28;20189;-59
2021/01/25 05:59:28;;;;;;;22.88;14.95;;;2.00;99.90;;;;;;5039117;28;20548;-57
2021/01/25 06:01:57;;;;;;;20.00;12.82;;;1.90;99.90;;;;;;5040349;28;20212;-57
2021/01/25 06:04:25;;;;;;;19.25;8.57;;;1.90;99.90;;;;;;5055243;28;20195;-54
2021/01/25 06:07:02;;;;;;;19.48;11.50;;;1.90;99.90;;;;;;5056800;28;20181;-55
2021/01/25 06:09:41;;;;;;;15.75;9.43;;;1.90;99.90;;;;;;5056274;28;20173;-52
2021/01/25 06:12:08;;;;;;;13.50;9.50;;;1.90;99.90;;;;;;5057036;28;20216;-56
2021/01/25 06:14:43;;;;;;;15.98;10.60;;;1.90;99.90;;;;;;5029066;28;20557;-53
2021/01/25 06:17:14;;;;;;;17.27;11.63;;;1.90;99.90;;;;;;5036710;28;20193;-54
2021/01/25 06:19:42;;;;;;;17.40;10.52;;;1.90;99.90;;;;;;5037950;28;20181;-55
2021/01/25 06:22:11;;;;;;;21.77;12.40;;;1.80;99.90;;;;;;5038377;28;20209;-55
2021/01/25 06:24:40;;;;;;;20.55;11.15;;;1.90;99.90;;;;;;5038130;28;20220;-52
2021/01/25 06:27:07;;;;;;;18.20;10.52;;;1.90;99.90;;;;;;5036821;28;20204;-55
2021/01/25 06:29:36;;;;;;;18.98;11.35;;;1.90;99.90;;;;;;5018338;28;20193;-59
2021/01/25 06:32:04;;;;;;;13.23;9.98;;;1.90;99.90;;;;;;5035347;28;20213;-58
2021/01/25 06:34:36;;;;;;;22.10;13.65;;;1.90;99.90;;;;;;5035642;28;20173;-57
2021/01/25 06:37:04;;;;;;;18.83;10.77;;;1.90;99.90;;;;;;5035575;28;20189;-56
2021/01/25 06:39:32;;;;;;;14.02;7.80;;;1.90;99.90;;;;;;5035561;28;20653;-58
2021/01/25 06:42:02;;;;;;;18.75;11.15;;;1.90;99.90;;;;;;5039306;28;20211;-60
2021/01/25 06:44:30;;;;;;;16.73;11.18;;;1.90;99.90;;;;;;5037686;28;20181;-56
2021/01/25 06:46:59;;;;;;;16.42;11.50;;;1.90;99.90;;;;;;5034519;28;20201;-57
2021/01/25 06:49:28;;;;;;;14.40;10.63;;;2.00;99.90;;;;;;5034545;28;20173;-54
2021/01/25 06:51:55;;;;;;;22.55;10.95;;;1.90;99.90;;;;;;5034567;28;20213;-55
2021/01/25 06:54:25;;;;;;;19.58;10.30;;;1.80;99.90;;;;;;5042215;28;20599;-57
2021/01/25 06:56:54;;;;;;;14.93;10.93;;;1.80;99.90;;;;;;5054536;28;20200;-58
2021/01/25 06:59:24;;;;;;;22.25;14.13;;;1.80;99.90;;;;;;5054362;28;20296;-56
2021/01/25 07:01:53;;;;;;;14.05;9.93;;;1.80;99.90;;;;;;5054798;28;20212;-57
2021/01/25 07:04:22;;;;;;;15.40;7.97;;;1.80;99.90;;;;;;5054280;28;20246;-55
2021/01/25 07:06:50;;;;;;;18.75;11.63;;;1.80;99.90;;;;;;5053645;28;20185;-55
2021/01/25 07:09:28;;;;;;;17.40;10.73;;;1.70;99.90;;;;;;5054454;28;20658;-58
2021/01/25 07:11:57;;;;;;;19.35;11.30;;;1.80;99.90;;;;;;5054663;28;20231;-55
2021/01/25 07:14:27;;;;;;;21.00;13.68;;;1.80;99.90;;;;;;5054581;28;20252;-56
2021/01/25 07:16:56;;;;;;;22.90;13.18;;;1.80;99.90;;;;;;5053076;28;20641;-55
2021/01/25 07:19:25;;;;;;;13.70;8.18;;;1.70;99.90;;;;;;5054242;28;20234;-55
2021/01/25 07:21:54;;;;;;;14.45;9.77;;;1.70;99.90;;;;;;5054397;28;20291;-58
2021/01/25 07:24:22;;;;;;;24.88;11.60;;;1.70;99.90;;;;;;5080131;22;20233;-50
2021/01/25 07:26:51;;;;;;;20.60;14.98;;;1.80;99.90;;;;;;5033211;28;20188;-49
2021/01/25 07:29:18;;;;;;;17.35;10.60;;;1.90;99.90;;;;;;5033581;28;20190;-49
2021/01/25 07:31:46;;;;;;;21.75;12.13;;;2.00;99.90;;;;;;5033548;28;20551;-46
2021/01/25 07:34:14;;;;;;;21.45;11.60;;;2.00;99.90;;;;;;5033781;28;20182;-49
2021/01/25 07:36:42;;;;;;;17.17;11.00;;;2.20;99.90;;;;;;5033953;28;20193;-47
2021/01/25 07:39:11;;;;;;;15.48;10.30;;;2.20;99.90;;;;;;5033464;28;20243;-51
2021/01/25 07:41:39;;;;;;;20.10;11.60;;;2.30;99.90;;;;;;5033279;28;20571;-51
2021/01/25 07:44:07;;;;;;;24.67;12.68;;;2.30;99.90;;;;;;5033557;28;20173;-49
2021/01/25 07:46:35;;;;;;;18.85;12.20;;;2.30;99.90;;;;;;5033509;28;20174;-49
2021/01/25 07:49:07;;;;;;;19.02;10.25;;;2.20;99.90;;;;;;5033675;28;20184;-50
2021/01/25 07:51:36;;;;;;;18.40;12.25;;;2.30;99.90;;;;;;5033251;28;20247;-47
2021/01/25 07:54:05;;;;;;;19.38;11.18;;;2.30;99.90;;;;;;5033170;28;20642;-48
2021/01/25 07:56:34;;;;;;;25.77;13.40;;;2.30;99.90;;;;;;5033226;28;20190;-53
2021/01/25 07:59:06;;;;;;;15.68;7.53;;;2.20;99.90;;;;;;5015852;28;20186;-49
2021/01/25 08:01:47;;;;;;;16.55;8.57;;;2.20;99.90;;;;;;5033372;28;20205;-47
2021/01/25 08:04:20;;;;;;;16.27;8.88;;;2.20;99.90;;;;;;5033361;28;20185;-48
2021/01/25 08:06:47;;;;;;;17.98;11.38;;;2.30;99.90;;;;;;5033075;28;20265;-47
2021/01/25 08:09:18;;;;;;;15.80;10.75;;;2.40;99.90;;;;;;5032984;28;20228;-51
2021/01/25 08:11:46;;;;;;;12.20;9.13;;;2.30;99.90;;;;;;5032675;28;20217;-57
2021/01/25 08:14:36;;;;;;;15.50;10.20;;;2.40;99.90;;;;;;5032530;28;20273;-49
2021/01/25 08:17:06;;;;;;;15.40;9.75;;;2.50;99.90;;;;;;5033404;28;20517;-49
2021/01/25 08:19:39;;;;;;;12.40;7.68;;;2.50;99.90;;;;;;5032482;28;20634;-48
2021/01/25 08:22:11;;;;;;;20.95;10.02;;;2.40;99.90;;;;;;5032072;28;20221;-53
2021/01/25 08:24:38;;;;;;;11.15;6.72;;;2.40;99.90;;;;;;5032337;28;20200;-46
2021/01/25 08:27:08;;;;;;;14.45;8.60;;;2.40;99.90;;;;;;5032020;28;20184;-55
2021/01/25 08:29:37;;;;;;;20.08;12.70;;;2.40;99.90;;;;;;5031987;28;20196;-48
2021/01/25 08:32:12;;;;;;;16.33;9.32;;;2.40;99.90;;;;;;5030454;28;20649;-54
2021/01/25 08:34:39;;;;;;;19.67;11.50;;;2.50;99.90;;;;;;5031775;28;20184;-51
2021/01/25 08:37:11;;;;;;;13.45;11.05;;;2.50;99.90;;;;;;5032518;28;20247;-51
2021/01/25 08:39:41;;;;;;;13.18;11.50;;;2.40;99.90;;;;;;5014993;28;20186;-46
2021/01/25 08:42:16;;;;;;;16.83;8.95;;;2.40;99.90;;;;;;5032948;28;20698;-49
2021/01/25 08:44:46;;;;;;;19.95;10.27;;;2.30;99.90;;;;;;5015090;28;20188;-47
2021/01/25 08:47:16;;;;;;;11.60;8.48;;;2.10;99.90;;;;;;5032662;28;20193;-46
2021/01/25 08:49:45;;;;;;;14.77;8.98;;;2.00;99.90;;;;;;5032767;28;20177;-48
2021/01/25 08:52:26;;;;;;;14.00;7.38;;;2.00;99.90;;;;;;5014504;28;20276;-48
2021/01/25 08:55:04;;;;;;;12.77;9.52;;;2.10;99.90;;;;;;5032077;28;20174;-49
2021/01/25 08:57:35;;;;;;;12.48;7.85;;;2.20;99.90;;;;;;5032384;28;20280;-48
2021/01/25 09:00:15;;;;;;;22.25;10.23;;;2.10;99.90;;;;;;5032148;28;20197;-52
2021/01/25 09:02:42;;;;;;;20.08;12.30;;;2.30;99.90;;;;;;5032149;28;20169;-54
2021/01/25 09:05:11;;;;;;;20.33;9.02;;;2.30;99.90;;;;;;5032440;28;20635;-52
2021/01/25 09:07:38;;;;;;;14.63;7.93;;;2.50;99.90;;;;;;5032402;28;20185;-49
2021/01/25 09:10:07;;;;;;;16.85;11.32;;;2.60;99.90;;;;;;5032393;28;20194;-47
2021/01/25 09:12:35;;;;;;;21.15;10.57;;;2.60;99.90;;;;;;5032492;28;20197;-47
2021/01/25 09:15:08;;;;;;;13.68;8.20;;;2.60;99.90;;;;;;5032777;28;20556;-48
2021/01/25 09:17:36;;;;;;;12.70;8.45;;;2.60;99.90;;;;;;5032706;28;20169;-49
2021/01/25 09:20:05;;;;;;;13.48;9.63;;;2.60;99.90;;;;;;5032231;28;20272;-47
2021/01/25 09:22:33;;;;;;;20.63;10.40;;;2.70;99.90;;;;;;5032299;28;20174;-50
2021/01/25 09:25:02;;;;;;;14.43;9.88;;;2.80;99.90;;;;;;5031955;28;20193;-50
2021/01/25 09:27:29;;;;;;;17.58;11.57;;;3.00;99.90;;;;;;5032187;28;20178;-45
2021/01/25 09:29:56;;;;;;;14.35;8.20;;;3.00;99.90;;;;;;5014368;28;20489;-51
2021/01/25 09:32:24;;;;;;;15.80;10.57;;;3.10;99.90;;;;;;5031984;28;20193;-49
2021/01/25 09:34:54;;;;;;;14.18;9.60;;;3.10;99.90;;;;;;5032271;28;20243;-53
2021/01/25 09:37:21;;;;;;;20.98;9.15;;;3.10;99.90;;;;;;5031794;28;20300;-51
2021/01/25 09:39:48;;;;;;;16.25;9.57;;;3.30;99.90;;;;;;5014374;28;20236;-52
2021/01/25 09:42:16;;;;;;;12.95;7.65;;;3.30;99.90;;;;;;5031918;28;20288;-51
2021/01/25 09:44:43;;;;;;;15.40;9.57;;;3.40;99.90;;;;;;5031932;28;20223;-45
2021/01/25 09:47:10;;;;;;;17.08;10.18;;;3.40;99.90;;;;;;5031468;28;20582;-47
2021/01/25 09:49:37;;;;;;;20.70;8.95;;;3.30;99.90;;;;;;5031945;28;20174;-51
2021/01/25 09:52:06;;;;;;;13.57;9.80;;;3.40;99.90;;;;;;5031640;28;20578;-50
2021/01/25 09:54:33;;;;;;;14.88;9.13;;;3.30;99.90;;;;;;5031602;28;20232;-50
2021/01/25 09:57:00;;;;;;;19.40;9.95;;;3.10;99.90;;;;;;5032206;28;20174;-51
2021/01/25 09:59:27;;;;;;;16.95;9.02;;;3.10;99.90;;;;;;5031469;28;20239;-46
2021/01/25 10:01:54;;;;;;;14.02;8.48;;;3.10;99.90;;;;;;5031656;28;20217;-45
2021/01/25 10:04:21;;;;;;;25.80;9.23;;;3.10;99.90;;;;;;5031346;28;20193;-48
2021/01/25 10:06:48;;;;;;;13.10;10.93;;;3.00;99.90;;;;;;5031656;28;20561;-47
2021/01/25 10:09:16;;;;;;;18.67;9.52;;;3.10;99.90;;;;;;5031514;28;20186;-46
2021/01/25 10:11:43;;;;;;;14.63;7.45;;;3.20;99.90;;;;;;5031384;28;20217;-45
2021/01/25 10:14:11;;;;;;;21.65;8.63;;;3.10;99.90;;;;;;5031091;28;20272;-46
2021/01/25 10:16:38;;;;;;;12.48;7.82;;;3.20;99.90;;;;;;5031773;28;20174;-45
2021/01/25 10:19:05;;;;;;;18.15;8.93;;;3.20;99.90;;;;;;5031776;28;20270;-46
2021/01/25 10:21:32;;;;;;;20.17;10.80;;;3.30;99.90;;;;;;5013919;28;20209;-46
2021/01/25 10:23:59;;;;;;;20.67;9.23;;;3.30;99.90;;;;;;5031352;28;20228;-46
2021/01/25 10:26:27;;;;;;;19.00;11.07;;;3.40;99.90;;;;;;5031457;28;20188;-47
2021/01/25 10:28:54;;;;;;;12.60;9.40;;;3.50;99.90;;;;;;5031346;28;20616;-53
2021/01/25 10:31:24;;;;;;;22.60;10.85;;;3.40;99.90;;;;;;5031113;28;20214;-45
2021/01/25 10:33:51;;;;;;;12.80;8.20;;;3.40;99.90;;;;;;5031176;28;20276;-47
2021/01/25 10:36:18;;;;;;;22.48;12.07;;;3.30;99.90;;;;;;5031009;28;20173;-53
2021/01/25 10:38:45;;;;;;;19.77;10.00;;;3.00;99.90;;;;;;5033751;28;20182;-48
2021/01/25 10:41:13;;;;;;;16.42;10.15;;;3.00;99.90;;;;;;5035148;28;20206;-47
2021/01/25 10:43:41;;;;;;;10.35;6.80;;;3.00;99.90;;;;;;5034938;28;20665;-45
2021/01/25 10:46:08;;;;;;;20.90;7.45;;;2.90;99.90;;;;;;5035027;28;20174;-49
2021/01/25 10:48:35;;;;;;;19.98;9.38;;;3.00;99.90;;;;;;5035187;28;20204;-52
2021/01/25 10:51:02;;;;;;;17.23;6.18;;;3.10;99.90;;;;;;5035039;28;20209;-48
2021/01/25 10:53:29;;;;;;;10.45;6.75;;;3.20;99.90;;;;;;5034882;28;20202;-49
2021/01/25 10:55:56;;;;;;;16.02;7.38;;;3.20;99.90;;;;;;5034633;28;20587;-51
2021/01/25 10:58:23;;;;;;;12.60;7.40;;;3.20;99.90;;;;;;5016909;28;20189;-47
2021/01/25 11:00:52;;;;;;;14.35;7.60;;;3.00;99.90;;;;;;5034494;28;20237;-53
2021/01/25 11:03:19;;;;;;;11.02;7.13;;;3.00;99.90;;;;;;5016654;28;20281;-46
2021/01/25 11:05:47;;;;;;;13.60;7.38;;;2.90;99.90;;;;;;5034631;28;20532;-50
2021/01/25 11:08:15;;;;;;;11.05;7.05;;;3.00;99.90;;;;;;5034771;28;20177;-47
2021/01/25 11:10:42;;;;;;;11.23;6.28;;;3.10;99.90;;;;;;5034265;28;20205;-47
2021/01/25 11:13:09;;;;;;;8.15;6.25;;;3.30;99.90;;;;;;5034185;28;20177;-50
2021/01/25 11:15:36;;;;;;;7.47;6.65;;;3.40;99.90;;;;;;5034123;28;20200;-48
2021/01/25 11:18:05;;;;;;;20.45;8.50;;;3.40;99.90;;;;;;5034470;28;20578;-47
2021/01/25 11:20:32;;;;;;;12.35;7.03;;;3.30;99.90;;;;;;5034433;28;20577;-48
2021/01/25 11:22:59;;;;;;;10.45;6.82;;;3.50;99.90;;;;;;5034378;28;20170;-48
2021/01/25 11:25:26;;;;;;;16.55;8.27;;;3.50;99.90;;;;;;5034490;28;20244;-47
2021/01/25 11:27:53;;;;;;;16.40;7.47;;;3.50;99.90;;;;;;5034335;28;20196;-48
2021/01/25 11:30:21;;;;;;;15.82;7.10;;;3.40;99.90;;;;;;5034620;28;20205;-46
2021/01/25 11:32:48;;;;;;;11.43;7.20;;;3.30;99.90;;;;;;5034054;28;20213;-52
2021/01/25 11:35:17;;;;;;;16.25;7.10;;;3.20;1.00;;;;;;5034661;28;20189;-53
2021/01/25 11:37:44;;;;;;;18.15;9.23;;;3.30;1.00;;;;;;5034127;28;20197;-48
2021/01/25 11:40:12;;;;;;;16.17;7.75;;;3.10;99.90;;;;;;5033971;28;20339;-47
2021/01/25 11:42:39;;;;;;;19.58;9.57;;;3.10;99.90;;;;;;5005143;28;20190;-47
2021/01/25 11:45:07;;;;;;;15.32;6.70;;;3.20;99.90;;;;;;5014298;28;20178;-48
2021/01/25 11:47:35;;;;;;;16.38;8.18;;;3.20;99.90;;;;;;5014234;28;20194;-53
2021/01/25 11:50:03;;;;;;;17.60;9.35;;;3.20;99.90;;;;;;5013035;28;20265;-52
2021/01/25 11:52:31;;;;;;;15.55;8.07;;;3.00;99.90;;;;;;5014237;28;20294;-47
2021/01/25 11:54:58;;;;;;;14.13;6.63;;;3.10;99.90;;;;;;5014476;28;20530;-46
2021/01/25 11:57:25;;;;;;;12.27;7.60;;;3.00;99.90;;;;;;5014254;28;20552;-45
2021/01/25 11:59:54;;;;;;;12.65;6.55;;;2.80;99.90;;;;;;5014064;28;20261;-43
2021/01/25 12:02:23;;;;;;;12.80;8.05;;;2.60;99.90;;;;;;5014288;28;20179;-48
2021/01/25 12:04:51;;;;;;;16.55;6.40;;;2.60;99.90;;;;;;5014104;28;20254;-45
2021/01/25 12:07:19;;;;;;;14.45;9.68;;;2.50;99.90;;;;;;5014186;28;20264;-48
2021/01/25 12:09:47;;;;;;;10.85;6.78;;;2.50;99.90;;;;;;5014051;28;20232;-47
2021/01/25 12:12:15;;;;;;;11.18;7.65;;;2.60;99.90;;;;;;5013594;28;20210;-48
2021/01/25 12:14:42;;;;;;;9.68;5.72;;;2.70;99.90;;;;;;5013706;28;20244;-44
2021/01/25 12:17:09;;;;;;;17.17;6.78;;;2.70;99.90;;;;;;4996043;28;20194;-49
2021/01/25 12:19:36;;;;;;;10.38;6.97;;;2.80;99.90;;;;;;4995806;28;20190;-46
2021/01/25 12:22:03;;;;;;;11.48;6.32;;;2.80;99.90;;;;;;5013634;28;20257;-50
2021/01/25 12:24:31;;;;;;;10.88;7.72;;;3.00;99.90;;;;;;5013890;28;20232;-49
2021/01/25 12:26:59;;;;;;;13.50;8.35;;;3.10;99.90;;;;;;5013813;28;20659;-44
2021/01/25 12:29:26;;;;;;;14.73;7.88;;;3.20;99.90;;;;;;5014104;28;20290;-44
2021/01/25 12:31:53;;;;;;;11.10;8.63;;;3.00;99.90;;;;;;5013999;28;20765;-46
2021/01/25 12:34:20;;;;;;;15.13;9.32;;;3.00;99.90;;;;;;5013641;28;20241;-46
2021/01/25 12:36:48;;;;;;;20.83;8.73;;;3.00;99.90;;;;;;5013607;28;20193;-47
2021/01/25 12:39:15;;;;;;;14.68;9.85;;;2.90;99.90;;;;;;5013278;28;20187;-50
2021/01/25 12:41:42;;;;;;;9.52;8.50;;;2.90;99.90;;;;;;5013726;28;20209;-55
2021/01/25 12:44:10;;;;;;;12.20;8.65;;;3.00;99.90;;;;;;5012870;28;20537;-52
2021/01/25 12:46:37;;;;;;;16.92;8.38;;;3.00;99.90;;;;;;5012985;28;20627;-48
2021/01/25 12:49:05;;;;;;;10.95;6.50;;;2.90;99.90;;;;;;5013097;28;20730;-52
2021/01/25 12:51:32;;;;;;;15.25;8.10;;;3.00;99.90;;;;;;5012770;28;20202;-51
2021/01/25 12:53:59;;;;;;;15.70;10.88;;;3.10;99.90;;;;;;5012829;28;20174;-53